Time;durP1;ratioP1;P1;durP2;ratioP2;P2;SDS_P1;SDS_P2;PMS_P1;PMS_P2;Temp;Humidity;BMP_temperature;BMP_pressure;BME280_temperature;BME280_humidity;BME280_pressure;Samples;Min_cycle;Max_cycle;Signal;HPM_P1;HPM_P2
2021/12/01 00:02:02;;;;;;;7.60;1.60;;;;;;;1.52;80.12;97078.79;105052;1323;22601;-74
2021/12/01 00:04:29;;;;;;;9.80;1.80;;;;;;;1.57;79.95;97084.51;105073;1324;22664;-74
2021/12/01 00:06:56;;;;;;;7.10;1.70;;;;;;;1.62;80.11;97087.70;105084;1325;22648;-74
2021/12/01 00:09:23;;;;;;;6.80;1.70;;;;;;;1.65;79.91;97088.73;105120;1320;24111;-74
2021/12/01 00:11:50;;;;;;;8.80;2.10;;;;;;;1.61;79.78;97094.95;105094;1324;22612;-74
2021/12/01 00:14:17;;;;;;;7.90;1.80;;;;;;;1.61;79.48;97098.24;105057;1324;22597;-74
2021/12/01 00:16:44;;;;;;;10.70;2.60;;;;;;;1.60;79.34;97100.69;105107;1324;24392;-74
2021/12/01 00:19:11;;;;;;;8.10;1.90;;;;;;;1.57;79.21;97106.83;105113;1322;22748;-74
2021/12/01 00:21:38;;;;;;;8.90;1.70;;;;;;;1.62;79.22;97108.13;105107;1325;22586;-74
2021/12/01 00:24:05;;;;;;;5.70;1.40;;;;;;;1.66;79.54;97109.95;105053;1325;25372;-75
2021/12/01 00:26:32;;;;;;;9.00;1.80;;;;;;;1.68;79.60;97116.73;105098;1322;23506;-74
2021/12/01 00:28:59;;;;;;;6.70;1.80;;;;;;;1.68;79.38;97121.32;105104;1325;22618;-73
2021/12/01 00:31:27;;;;;;;9.90;1.50;;;;;;;1.66;79.19;97128.67;105090;1324;22726;-74
2021/12/01 00:33:55;;;;;;;6.00;1.30;;;;;;;1.65;79.10;97127.17;105230;1324;22713;-73
2021/12/01 00:36:22;;;;;;;8.70;2.10;;;;;;;1.64;78.64;97130.29;105447;1325;22596;-73
2021/12/01 00:38:49;;;;;;;8.30;1.60;;;;;;;1.65;78.60;97129.91;105095;1325;22674;-74
2021/12/01 00:41:20;;;;;;;5.70;1.30;;;;;;;1.71;78.65;97141.41;105074;1325;22575;-74
2021/12/01 00:43:47;;;;;;;5.60;1.70;;;;;;;1.75;78.67;97149.80;105083;1324;22766;-75
2021/12/01 00:46:20;;;;;;;7.80;1.70;;;;;;;1.77;79.00;97150.20;105105;1323;22596;-74
2021/12/01 00:48:47;;;;;;;6.10;1.50;;;;;;;1.75;78.48;97153.05;105112;1325;23538;-73
2021/12/01 00:51:16;;;;;;;11.60;1.70;;;;;;;1.75;78.14;97163.16;105107;1324;22677;-73
2021/12/01 00:53:44;;;;;;;5.50;1.80;;;;;;;1.71;77.93;97173.34;105085;1325;22591;-75
2021/12/01 00:56:11;;;;;;;9.10;2.00;;;;;;;1.69;77.78;97171.91;105125;1324;23079;-75
2021/12/01 00:58:38;;;;;;;8.50;1.90;;;;;;;1.69;77.81;97172.59;105090;1324;23482;-74
2021/12/01 01:01:05;;;;;;;9.00;2.60;;;;;;;1.72;77.98;97174.98;105101;1324;22672;-75
2021/12/01 01:03:32;;;;;;;8.10;1.70;;;;;;;1.76;78.34;97181.82;105124;1325;22961;-74
2021/12/01 01:05:59;;;;;;;5.80;1.40;;;;;;;1.79;78.33;97194.91;105122;1325;22606;-74
2021/12/01 01:08:26;;;;;;;5.50;1.50;;;;;;;1.76;77.95;97201.40;105095;1324;23173;-75
2021/12/01 01:16:25;;;;;;;5.00;1.40;;;;;;;1.68;77.56;97216.93;105084;1325;22561;-75
2021/12/01 01:19:00;;;;;;;8.70;1.40;;;;;;;1.68;77.16;97225.87;105091;1322;22585;-75
2021/12/01 01:21:31;;;;;;;6.10;1.30;;;;;;;1.73;77.57;97234.52;105047;1324;22587;-75
2021/12/01 01:24:00;;;;;;;7.90;1.70;;;;;;;1.78;77.45;97233.91;105082;1324;22590;-74
2021/12/01 01:26:28;;;;;;;4.30;1.80;;;;;;;1.72;77.21;97235.07;105103;1325;22605;-75
2021/12/01 01:28:55;;;;;;;5.00;1.20;;;;;;;1.66;77.22;97242.78;105064;1325;22649;-75
2021/12/01 01:31:23;;;;;;;5.60;1.10;;;;;;;1.66;77.00;97246.86;105093;1323;22659;-75
2021/12/01 01:33:51;;;;;;;4.10;1.20;;;;;;;1.63;76.95;97254.05;105141;1325;22669;-75
2021/12/01 01:36:19;;;;;;;8.50;1.70;;;;;;;1.66;77.30;97258.59;105075;1325;22684;-75
2021/12/01 01:38:47;;;;;;;4.70;1.10;;;;;;;1.68;77.57;97257.97;105102;1325;22735;-75
2021/12/01 01:41:14;;;;;;;7.80;1.60;;;;;;;1.65;77.66;97273.74;105069;1325;22677;-75
2021/12/01 01:43:44;;;;;;;4.00;0.80;;;;;;;1.63;77.52;97277.77;105084;1325;23990;-75
2021/12/01 01:46:14;;;;;;;3.60;0.80;;;;;;;1.62;77.23;97280.58;105042;1322;22596;-75
2021/12/01 01:49:37;;;;;;;4.70;0.80;;;;;;;1.55;77.43;97286.05;105050;1324;22601;-75
2021/12/01 01:51:33;;;;;;;3.80;1.20;;;;;;;1.50;77.40;97289.23;105039;1325;22592;-75
2021/12/01 01:54:00;;;;;;;5.80;1.40;;;;;;;1.56;77.41;97291.53;105129;1324;22646;-75
2021/12/01 01:56:28;;;;;;;6.50;1.30;;;;;;;1.51;77.80;97301.89;105096;1325;27956;-75
2021/12/01 01:58:56;;;;;;;4.00;0.90;;;;;;;1.46;78.43;97313.09;105186;1322;22610;-75
2021/12/01 02:03:57;;;;;;;5.10;1.50;;;;;;;1.25;78.87;97325.98;105092;1325;22585;-75
2021/12/01 02:06:25;;;;;;;4.10;1.30;;;;;;;1.21;78.99;97334.75;105113;1325;22559;-78
2021/12/01 02:08:56;;;;;;;5.80;1.50;;;;;;;1.17;79.24;97338.55;105054;1325;22579;-75
2021/12/01 02:11:26;;;;;;;4.40;1.50;;;;;;;1.15;79.46;97340.52;105018;1324;22589;-75
2021/12/01 02:13:53;;;;;;;3.40;1.10;;;;;;;1.15;79.76;97341.23;105051;1322;22616;-75
2021/12/01 02:16:21;;;;;;;6.70;1.80;;;;;;;1.15;80.13;97344.31;105093;1324;25428;-75
2021/12/01 02:18:49;;;;;;;4.70;1.50;;;;;;;1.09;80.27;97351.79;105131;1324;22597;-75
2021/12/01 02:21:26;;;;;;;6.70;1.60;;;;;;;1.08;80.06;97364.18;105092;1324;22592;-75
2021/12/01 02:23:56;;;;;;;6.00;1.60;;;;;;;1.05;79.85;97368.58;105071;1325;22579;-75
2021/12/01 02:26:24;;;;;;;4.30;1.60;;;;;;;1.04;79.70;97372.77;105066;1324;22596;-74
2021/12/01 02:28:54;;;;;;;3.40;1.50;;;;;;;1.04;79.66;97376.36;105082;1325;24393;-74
2021/12/01 02:31:25;;;;;;;7.60;1.90;;;;;;;1.07;79.95;97383.42;105131;1325;23515;-74
2021/12/01 02:33:53;;;;;;;5.50;1.70;;;;;;;1.10;80.37;97390.48;105119;1324;22608;-74
2021/12/01 02:36:21;;;;;;;4.80;1.60;;;;;;;1.05;80.29;97400.19;105056;1325;22741;-74
2021/12/01 02:38:49;;;;;;;5.10;1.50;;;;;;;1.03;80.08;97396.64;105135;1318;22588;-74
2021/12/01 02:41:24;;;;;;;3.90;1.50;;;;;;;1.02;80.01;97397.20;105137;1323;22717;-74
2021/12/01 02:43:51;;;;;;;3.50;1.30;;;;;;;1.01;79.93;97396.06;105095;1325;22636;-74
2021/12/01 02:46:18;;;;;;;5.00;2.00;;;;;;;1.03;80.20;97396.14;105084;1324;22699;-75
2021/12/01 02:48:46;;;;;;;6.50;1.50;;;;;;;1.03;80.28;97406.58;105127;1324;22712;-76
2021/12/01 02:51:13;;;;;;;4.50;1.40;;;;;;;1.06;80.58;97416.92;105135;1324;22569;-76
2021/12/01 02:53:41;;;;;;;5.70;1.80;;;;;;;1.01;80.73;97419.52;105065;1324;24137;-75
2021/12/01 02:56:09;;;;;;;7.30;2.20;;;;;;;0.99;80.46;97421.55;105107;1325;25461;-75
2021/12/01 02:58:41;;;;;;;7.60;1.60;;;;;;;0.97;80.23;97427.64;105114;1325;25291;-75
2021/12/01 03:01:15;;;;;;;5.00;1.40;;;;;;;0.93;80.26;97428.64;105150;1323;22585;-73
2021/12/01 03:03:43;;;;;;;6.10;1.70;;;;;;;0.91;80.17;97427.71;105124;1325;22617;-74
2021/12/01 03:06:11;;;;;;;4.60;1.60;;;;;;;0.96;80.24;97429.40;105141;1324;25394;-74
2021/12/01 03:08:43;;;;;;;5.80;2.10;;;;;;;0.95;80.62;97429.79;105155;1325;22730;-73
2021/12/01 03:11:10;;;;;;;5.10;1.50;;;;;;;0.94;80.90;97432.88;105159;1325;22645;-74
2021/12/01 03:13:37;;;;;;;4.70;1.30;;;;;;;0.92;80.99;97438.98;105247;1318;22627;-76
2021/12/01 03:16:04;;;;;;;5.10;1.50;;;;;;;0.88;80.74;97439.52;105406;1319;22656;-75
2021/12/01 03:18:32;;;;;;;5.90;1.60;;;;;;;0.85;80.40;97447.52;105350;1324;22600;-74
2021/12/01 03:21:00;;;;;;;3.80;1.70;;;;;;;0.80;80.45;97457.37;105373;1324;22673;-74
2021/12/01 03:23:27;;;;;;;4.90;1.70;;;;;;;0.78;80.42;97460.03;105384;1324;22591;-74
2021/12/01 03:25:54;;;;;;;5.70;2.00;;;;;;;0.78;80.60;97467.39;105373;1324;22695;-74
2021/12/01 03:28:21;;;;;;;3.80;1.80;;;;;;;0.79;80.94;97471.66;105378;1323;22610;-74
2021/12/01 03:30:49;;;;;;;5.80;1.60;;;;;;;0.79;81.27;97472.15;105368;1325;22723;-74
2021/12/01 03:33:20;;;;;;;5.00;1.40;;;;;;;0.76;81.26;97483.09;105356;1322;22717;-74
2021/12/01 03:35:50;;;;;;;6.60;1.60;;;;;;;0.70;81.19;97489.17;105374;1324;22613;-74
2021/12/01 03:38:20;;;;;;;4.30;1.60;;;;;;;0.66;81.07;97491.71;105387;1325;22583;-74
2021/12/01 03:40:48;;;;;;;6.20;1.70;;;;;;;0.64;80.94;97487.85;105417;1324;22789;-74
2021/12/01 03:43:15;;;;;;;7.50;2.10;;;;;;;0.67;81.03;97491.66;105379;1325;22679;-74
2021/12/01 03:45:43;;;;;;;5.00;2.10;;;;;;;0.70;81.41;97486.95;105372;1325;22621;-73
2021/12/01 03:48:10;;;;;;;4.30;1.80;;;;;;;0.72;81.89;97492.67;105398;1324;22588;-74
2021/12/01 03:50:38;;;;;;;6.60;2.40;;;;;;;0.69;81.79;97491.61;105367;1325;22661;-73
2021/12/01 03:53:06;;;;;;;7.00;2.40;;;;;;;0.69;81.60;97490.94;105303;1325;24452;-74
2021/12/01 03:55:35;;;;;;;5.90;1.90;;;;;;;0.70;81.31;97489.16;105364;1324;22596;-76
2021/12/01 03:58:05;;;;;;;6.30;1.80;;;;;;;0.69;81.07;97485.79;105380;1325;25464;-75
2021/12/01 04:00:32;;;;;;;7.40;2.40;;;;;;;0.68;80.84;97488.70;105381;1324;24117;-74
2021/12/01 04:02:59;;;;;;;5.60;2.20;;;;;;;0.73;80.98;97490.90;105387;1324;22588;-74
2021/12/01 04:05:27;;;;;;;5.80;2.30;;;;;;;0.75;81.31;97494.91;105377;1324;22573;-74
2021/12/01 04:07:54;;;;;;;7.20;2.30;;;;;;;0.75;81.75;97495.42;105414;1325;25284;-75
2021/12/01 04:10:23;;;;;;;7.20;2.20;;;;;;;0.73;81.63;97493.65;105239;1324;22779;-77
2021/12/01 04:12:51;;;;;;;5.70;2.00;;;;;;;0.72;81.52;97502.78;105118;1325;22593;-77
2021/12/01 04:15:18;;;;;;;4.70;2.10;;;;;;;0.71;81.23;97507.29;105105;1324;22660;-78
2021/12/01 04:17:45;;;;;;;5.80;1.90;;;;;;;0.70;81.10;97507.13;105114;1322;22596;-77
2021/12/01 04:20:15;;;;;;;5.60;2.40;;;;;;;0.72;80.96;97513.21;105054;1323;26226;-75
2021/12/01 04:22:44;;;;;;;6.60;2.50;;;;;;;0.74;81.16;97514.51;105050;1325;22596;-75
2021/12/01 04:25:12;;;;;;;6.80;2.20;;;;;;;0.78;81.51;97510.58;105084;1325;22645;-75
2021/12/01 04:27:39;;;;;;;5.20;2.00;;;;;;;0.80;81.80;97503.79;105110;1325;22769;-77
2021/12/01 04:30:09;;;;;;;6.60;2.50;;;;;;;0.79;81.60;97507.29;105166;1325;26576;-75
2021/12/01 04:32:36;;;;;;;6.70;2.80;;;;;;;0.77;81.67;97501.70;105191;1325;22595;-78
2021/12/01 04:35:06;;;;;;;6.10;2.70;;;;;;;0.77;81.21;97505.67;105137;1325;22711;-81
2021/12/01 04:37:35;;;;;;;7.70;3.10;;;;;;;0.74;81.18;97503.02;105148;1325;23375;-78
2021/12/01 04:40:05;;;;;;;6.60;3.30;;;;;;;0.75;80.91;97502.99;105278;1324;22751;-78
2021/12/01 04:42:33;;;;;;;10.50;3.80;;;;;;;0.79;80.96;97504.71;105385;1325;22596;-79
2021/12/01 04:45:00;;;;;;;7.70;3.00;;;;;;;0.81;81.46;97500.35;105091;1323;22584;-76
2021/12/01 04:47:33;;;;;;;9.00;2.90;;;;;;;0.82;81.90;97499.80;105085;1325;22674;-76
2021/12/01 04:50:00;;;;;;;8.60;3.00;;;;;;;0.80;81.67;97506.39;105101;1325;22849;-78
2021/12/01 04:52:27;;;;;;;9.80;3.20;;;;;;;0.77;81.37;97509.77;105176;1325;22782;-80
2021/12/01 04:54:54;;;;;;;9.10;2.90;;;;;;;0.72;81.31;97516.98;105167;1324;22577;-76
2021/12/01 04:57:22;;;;;;;7.50;3.40;;;;;;;0.70;81.06;97518.64;105147;1323;25524;-79
2021/12/01 04:59:50;;;;;;;10.50;3.30;;;;;;;0.69;80.89;97518.00;105072;1324;22572;-76
2021/12/01 05:02:17;;;;;;;11.20;3.90;;;;;;;0.72;81.09;97518.89;105096;1325;25289;-77
2021/12/01 05:04:44;;;;;;;13.70;3.70;;;;;;;0.77;81.42;97514.91;105140;1324;25416;-76
2021/12/01 05:07:13;;;;;;;8.80;3.70;;;;;;;0.76;81.86;97512.02;105119;1324;22619;-76
2021/12/01 05:09:41;;;;;;;9.00;4.10;;;;;;;0.72;81.70;97512.17;105069;1324;23109;-76
2021/12/01 05:12:09;;;;;;;11.20;5.00;;;;;;;0.69;81.47;97509.92;105078;1324;22569;-77
2021/12/01 05:14:37;;;;;;;10.20;4.10;;;;;;;0.67;81.29;97510.19;105101;1325;22701;-76
2021/12/01 05:17:05;;;;;;;15.90;6.20;;;;;;;0.66;81.26;97507.30;105165;1324;22703;-78
2021/12/01 05:19:33;;;;;;;12.30;5.30;;;;;;;0.67;80.94;97509.34;105088;1325;23124;-77
2021/12/01 05:22:02;;;;;;;11.00;4.40;;;;;;;0.69;81.14;97516.44;105090;1324;24668;-79
2021/12/01 05:24:29;;;;;;;8.90;3.60;;;;;;;0.71;81.31;97512.94;105101;1325;23186;-77
2021/12/01 05:26:56;;;;;;;10.90;4.70;;;;;;;0.71;81.45;97513.82;105104;1319;22588;-76
2021/12/01 05:29:24;;;;;;;12.50;5.40;;;;;;;0.70;81.62;97511.42;105123;1325;24011;-80
2021/12/01 05:31:55;;;;;;;12.00;6.30;;;;;;;0.68;81.41;97514.25;105137;1324;24247;-76
2021/12/01 05:34:23;;;;;;;12.10;5.40;;;;;;;0.65;81.11;97515.93;105322;1325;22596;-77
2021/12/01 05:36:51;;;;;;;12.60;5.30;;;;;;;0.64;81.03;97519.24;105129;1325;22596;-76
2021/12/01 05:39:18;;;;;;;11.50;5.20;;;;;;;0.62;81.03;97522.40;105390;1325;22617;-75
2021/12/01 05:41:45;;;;;;;11.00;4.70;;;;;;;0.67;81.11;97527.51;105149;1324;24265;-76
2021/12/01 05:44:12;;;;;;;13.70;4.90;;;;;;;0.70;81.55;97532.33;105166;1324;22595;-79
2021/12/01 05:46:39;;;;;;;9.40;3.60;;;;;;;0.70;81.52;97530.27;105120;1322;22679;-80
2021/12/01 05:49:06;;;;;;;10.50;5.00;;;;;;;0.71;81.76;97534.73;105062;1324;25628;-81
2021/12/01 05:51:33;;;;;;;15.40;5.80;;;;;;;0.69;81.41;97536.52;105114;1323;22595;-79
2021/12/01 05:54:01;;;;;;;12.30;6.30;;;;;;;0.69;81.45;97546.29;105191;1324;22631;-81
2021/12/01 05:56:28;;;;;;;15.50;5.90;;;;;;;0.68;81.23;97547.49;105218;1324;22711;-75
2021/12/01 05:58:56;;;;;;;14.30;5.80;;;;;;;0.69;81.22;97541.80;105176;1322;24471;-75
2021/12/01 06:01:23;;;;;;;22.10;7.30;;;;;;;0.75;81.03;97539.67;105172;1316;22585;-78
2021/12/01 06:03:51;;;;;;;16.30;6.00;;;;;;;0.79;81.15;97534.70;105144;1324;22721;-82
2021/12/01 06:06:18;;;;;;;11.10;4.70;;;;;;;0.80;81.50;97529.02;105199;1325;22565;-77
2021/12/01 06:08:45;;;;;;;17.00;5.40;;;;;;;0.77;81.46;97524.33;105162;1324;22709;-77
2021/12/01 06:11:13;;;;;;;17.90;5.40;;;;;;;0.75;81.29;97525.60;105113;1324;24202;-79
2021/12/01 06:13:41;;;;;;;12.20;4.50;;;;;;;0.72;81.11;97525.41;105160;1324;25462;-76
2021/12/01 06:16:08;;;;;;;13.30;5.60;;;;;;;0.69;80.99;97523.12;105116;1325;25375;-77
2021/12/01 06:18:35;;;;;;;15.80;6.10;;;;;;;0.69;80.87;97525.70;105136;1325;22626;-75
2021/12/01 06:21:03;;;;;;;15.40;6.10;;;;;;;0.73;80.67;97532.89;105139;1325;25499;-76
2021/12/01 06:23:30;;;;;;;18.20;6.10;;;;;;;0.75;80.91;97529.02;105114;1321;23839;-77
2021/12/01 06:25:57;;;;;;;18.20;6.80;;;;;;;0.76;81.22;97530.54;105081;1320;25464;-75
2021/12/01 06:28:24;;;;;;;19.10;6.60;;;;;;;0.74;81.24;97530.27;105105;1324;22596;-77
2021/12/01 06:30:51;;;;;;;16.00;7.10;;;;;;;0.73;81.06;97528.61;105172;1325;22917;-79
2021/12/01 06:33:18;;;;;;;18.00;7.60;;;;;;;0.74;80.98;97525.14;105605;1324;22599;-81
2021/12/01 06:35:49;;;;;;;19.60;7.10;;;;;;;0.75;80.97;97518.92;105173;1320;22631;-82
2021/12/01 06:38:17;;;;;;;19.60;8.00;;;;;;;0.75;80.81;97515.66;105187;1325;22620;-81
2021/12/01 06:40:45;;;;;;;24.00;8.80;;;;;;;0.77;80.49;97520.57;105188;1325;24440;-80
2021/12/01 06:43:12;;;;;;;25.20;7.80;;;;;;;0.81;80.54;97512.80;105182;1325;22585;-76
2021/12/01 06:45:40;;;;;;;17.70;6.80;;;;;;;0.87;80.75;97514.64;105105;1324;22655;-75
2021/12/01 06:48:07;;;;;;;18.20;6.90;;;;;;;0.89;81.12;97511.45;105096;1325;22711;-75
2021/12/01 06:50:34;;;;;;;23.30;8.50;;;;;;;0.88;81.08;97506.89;105075;1325;22705;-75
2021/12/01 06:53:01;;;;;;;22.40;7.90;;;;;;;0.90;81.13;97505.76;105086;1325;25290;-76
2021/12/01 06:55:28;;;;;;;24.30;7.70;;;;;;;0.93;80.94;97504.27;105127;1325;23045;-76
2021/12/01 06:57:55;;;;;;;23.50;8.90;;;;;;;0.95;80.75;97501.44;105125;1324;22673;-76
2021/12/01 07:00:25;;;;;;;26.90;10.80;;;;;;;0.95;80.55;97496.27;105174;1324;22901;-79
2021/12/01 07:02:52;;;;;;;24.90;11.40;;;;;;;0.96;80.40;97496.23;104925;1324;363472;-82
2021/12/01 07:05:19;;;;;;;25.10;11.70;;;;;;;1.02;80.30;97498.51;105177;1325;22677;-83
2021/12/01 07:07:46;;;;;;;106.10;54.00;;;;;;;1.08;80.56;97494.80;105178;1325;23047;-82
2021/12/01 07:10:14;;;;;;;51.30;26.30;;;;;;;1.13;80.66;97483.98;105196;1324;22592;-79
2021/12/01 07:12:42;;;;;;;37.50;16.50;;;;;;;1.16;80.85;97474.77;105200;1325;22582;-80
2021/12/01 07:15:11;;;;;;;25.20;11.40;;;;;;;1.19;80.52;97470.66;105188;1323;22576;-81
2021/12/01 07:17:38;;;;;;;27.70;13.10;;;;;;;1.23;80.50;97468.95;105148;1324;22602;-77
2021/12/01 07:20:08;;;;;;;33.30;16.20;;;;;;;1.24;80.21;97473.19;105163;1325;22572;-80
2021/12/01 07:22:36;;;;;;;33.40;14.50;;;;;;;1.23;80.18;97477.36;105154;1324;23049;-81
2021/12/01 07:25:04;;;;;;;29.60;13.50;;;;;;;1.22;79.69;97473.09;105149;1324;22757;-78
2021/12/01 07:27:31;;;;;;;36.80;16.90;;;;;;;1.25;79.69;97465.60;105109;1325;23673;-78
2021/12/01 07:29:58;;;;;;;66.90;29.90;;;;;;;1.26;80.11;97466.39;105116;1325;23609;-77
2021/12/01 07:32:25;;;;;;;55.80;24.10;;;;;;;1.25;80.18;97464.55;105094;1324;23189;-78
2021/12/01 07:34:52;;;;;;;54.50;23.20;;;;;;;1.25;80.33;97464.21;105075;1325;24224;-77
2021/12/01 07:37:19;;;;;;;46.80;21.10;;;;;;;1.25;80.08;97452.05;105160;1325;22534;-78
2021/12/01 07:39:46;;;;;;;39.30;19.20;;;;;;;1.25;79.86;97446.71;105199;1324;23080;-76
2021/12/01 07:42:14;;;;;;;41.40;18.80;;;;;;;1.27;79.71;97443.02;105106;1325;25536;-77
2021/12/01 07:44:43;;;;;;;40.30;18.30;;;;;;;1.28;79.59;97436.29;105162;1325;22663;-76
2021/12/01 07:47:11;;;;;;;95.10;40.20;;;;;;;1.28;79.45;97438.87;105205;1325;22573;-79
2021/12/01 07:49:38;;;;;;;115.50;47.20;;;;;;;1.31;79.41;97433.58;105298;1325;23037;-79
2021/12/01 07:52:07;;;;;;;51.40;24.10;;;;;;;1.33;79.64;97420.64;105118;1324;24785;-77
2021/12/01 07:54:34;;;;;;;59.50;28.70;;;;;;;1.32;80.00;97423.27;105091;1324;22821;-77
2021/12/01 07:57:02;;;;;;;52.80;26.10;;;;;;;1.30;80.03;97420.61;105100;1325;22584;-76
2021/12/01 07:59:29;;;;;;;60.60;30.10;;;;;;;1.29;79.52;97415.16;105136;1323;22766;-76
2021/12/01 08:01:57;;;;;;;57.50;31.30;;;;;;;1.29;79.49;97411.91;105080;1325;22660;-77
2021/12/01 08:04:24;;;;;;;59.20;29.40;;;;;;;1.28;79.39;97410.22;105170;1323;22650;-78
2021/12/01 08:06:54;;;;;;;59.30;29.20;;;;;;;1.28;79.18;97409.17;105158;1325;25358;-78
2021/12/01 08:09:22;;;;;;;55.30;28.20;;;;;;;1.29;79.13;97405.54;105128;1325;22726;-76
2021/12/01 08:11:49;;;;;;;46.60;23.20;;;;;;;1.36;79.02;97404.86;105090;1325;22730;-75
2021/12/01 08:14:16;;;;;;;53.20;23.70;;;;;;;1.41;79.24;97406.88;105093;1325;22801;-75
2021/12/01 08:16:43;;;;;;;59.80;23.90;;;;;;;1.42;79.53;97406.14;105087;1325;23453;-75
2021/12/01 08:19:10;;;;;;;62.70;26.90;;;;;;;1.39;79.52;97406.10;105120;1325;22592;-76
2021/12/01 08:21:37;;;;;;;68.40;30.00;;;;;;;1.39;79.31;97402.30;105109;1325;22713;-75
2021/12/01 08:24:05;;;;;;;63.50;28.70;;;;;;;1.41;79.06;97404.27;105132;1325;22840;-75
2021/12/01 08:26:32;;;;;;;71.30;28.40;;;;;;;1.42;78.62;97400.95;105079;1324;22670;-78
2021/12/01 08:28:59;;;;;;;77.50;30.70;;;;;;;1.42;78.61;97395.29;105100;1325;22581;-74
2021/12/01 08:31:26;;;;;;;75.10;28.60;;;;;;;1.44;78.46;97392.09;105098;1325;22582;-76
2021/12/01 08:33:53;;;;;;;60.20;28.50;;;;;;;1.48;78.24;97385.73;105146;1325;22680;-74
2021/12/01 08:36:20;;;;;;;42.70;21.30;;;;;;;1.56;78.31;97389.30;105157;1325;22650;-78
2021/12/01 08:38:47;;;;;;;45.80;18.00;;;;;;;1.63;78.34;97386.39;105127;1325;23952;-75
2021/12/01 08:41:14;;;;;;;37.70;16.80;;;;;;;1.69;78.77;97380.61;105061;1325;22663;-75
2021/12/01 08:43:42;;;;;;;43.50;18.80;;;;;;;1.72;78.82;97375.45;105146;1325;22704;-76
2021/12/01 08:46:09;;;;;;;41.70;20.70;;;;;;;1.76;78.51;97370.64;105135;1324;22607;-80
2021/12/01 08:48:37;;;;;;;39.50;19.10;;;;;;;1.81;78.08;97367.09;105210;1325;22807;-76
2021/12/01 08:51:06;;;;;;;49.80;25.20;;;;;;;1.89;77.46;97365.53;105074;1324;25543;-77
2021/12/01 08:53:36;;;;;;;45.30;22.10;;;;;;;1.91;77.00;97366.11;105153;1324;22591;-78
2021/12/01 08:56:04;;;;;;;90.40;54.30;;;;;;;1.95;77.05;97364.91;105165;1323;22797;-78
2021/12/01 08:58:31;;;;;;;35.80;19.20;;;;;;;2.00;76.61;97355.38;105192;1325;22677;-81
2021/12/01 09:00:59;;;;;;;34.60;16.20;;;;;;;2.05;76.19;97354.42;105192;1325;22582;-79
2021/12/01 09:03:26;;;;;;;31.20;15.10;;;;;;;2.12;76.71;97355.41;105384;1325;22647;-74
2021/12/01 09:05:54;;;;;;;29.60;15.20;;;;;;;2.22;76.97;97346.27;105169;1324;22703;-77
2021/12/01 09:08:23;;;;;;;37.80;19.20;;;;;;;2.26;76.98;97342.64;105177;1324;24258;-76
2021/12/01 09:10:54;;;;;;;32.00;16.80;;;;;;;2.31;76.92;97338.28;105156;1324;22588;-77
2021/12/01 09:13:23;;;;;;;32.60;13.80;;;;;;;2.39;76.70;97331.83;105670;1325;25934;-78
2021/12/01 09:15:55;;;;;;;49.10;25.60;;;;;;;2.51;76.53;97320.02;105201;1325;23088;-78
2021/12/01 09:18:24;;;;;;;48.10;23.10;;;;;;;2.57;76.27;97317.64;105227;1325;23777;-82
2021/12/01 09:20:51;;;;;;;112.20;62.50;;;;;;;2.67;76.36;97307.31;105129;1325;22620;-78
2021/12/01 09:23:19;;;;;;;216.60;79.20;;;;;;;2.70;76.22;97304.73;105143;1325;22573;-78
2021/12/01 09:25:47;;;;;;;81.50;35.60;;;;;;;2.73;75.91;97309.20;105142;1325;25901;-79
2021/12/01 09:28:22;;;;;;;110.80;43.90;;;;;;;2.81;75.72;97311.72;105420;1325;22777;-76
2021/12/01 09:30:52;;;;;;;420.00;165.90;;;;;;;2.89;75.28;97312.09;105429;1322;22725;-78
2021/12/01 09:33:19;;;;;;;129.40;49.70;;;;;;;2.98;76.12;97309.73;105416;1325;22599;-77
2021/12/01 09:35:47;;;;;;;327.60;146.50;;;;;;;3.07;76.68;97305.98;105424;1325;22662;-79
2021/12/01 09:38:16;;;;;;;158.20;66.40;;;;;;;3.14;76.59;97303.66;105413;1325;22836;-75
2021/12/01 09:40:47;;;;;;;138.50;54.80;;;;;;;3.22;75.72;97300.08;105391;1324;22592;-75
2021/12/01 09:43:16;;;;;;;86.20;40.50;;;;;;;3.34;75.60;97304.36;105395;1323;25442;-75
2021/12/01 09:45:44;;;;;;;41.90;20.00;;;;;;;3.42;75.42;97299.66;105399;1325;22589;-75
2021/12/01 09:48:11;;;;;;;54.30;28.90;;;;;;;3.49;74.95;97290.31;105377;1325;24258;-73
2021/12/01 09:50:38;;;;;;;44.40;23.10;;;;;;;3.50;74.73;97290.58;105386;1325;24227;-75
2021/12/01 09:53:06;;;;;;;32.10;13.60;;;;;;;3.52;74.13;97284.77;105130;1325;22587;-76
2021/12/01 09:55:35;;;;;;;34.10;16.00;;;;;;;3.57;75.12;97282.27;105141;1325;22595;-75
2021/12/01 09:58:05;;;;;;;38.90;20.40;;;;;;;3.58;75.60;97283.75;105104;1325;22612;-74
2021/12/01 10:00:33;;;;;;;28.40;12.60;;;;;;;3.56;75.96;97278.85;105150;1325;22613;-75
2021/12/01 10:03:01;;;;;;;23.80;10.40;;;;;;;3.63;75.43;97273.44;105171;1325;22608;-76
2021/12/01 10:05:50;;;;;;;24.30;12.20;;;;;;;3.63;75.31;97268.96;105090;1325;22600;-75
2021/12/01 10:08:26;;;;;;;24.60;11.00;;;;;;;3.63;75.37;97269.66;105094;1325;22616;-76
2021/12/01 10:10:55;;;;;;;20.10;9.70;;;;;;;3.58;75.34;97267.55;105114;1325;22654;-78
2021/12/01 10:13:26;;;;;;;21.80;11.50;;;;;;;3.55;76.04;97265.01;105097;1323;22613;-75
2021/12/01 10:15:55;;;;;;;23.60;11.60;;;;;;;3.55;76.66;97258.43;105104;1325;24381;-75
2021/12/01 10:18:22;;;;;;;26.80;11.90;;;;;;;3.54;76.90;97244.19;105075;1325;22781;-75
2021/12/01 10:21:08;;;;;;;22.50;10.30;;;;;;;3.51;76.77;97233.87;105108;1325;22766;-75
2021/12/01 10:23:47;;;;;;;25.30;11.60;;;;;;;3.45;77.15;97231.86;105099;1325;22712;-76
2021/12/01 10:26:19;;;;;;;29.20;14.10;;;;;;;3.47;77.10;97227.44;105370;1325;22383;-76
2021/12/01 10:28:52;;;;;;;32.70;14.20;;;;;;;3.51;76.97;97224.92;105120;1323;23259;-75
2021/12/01 10:31:40;;;;;;;22.60;10.50;;;;;;;3.61;77.21;97218.17;105105;1325;22588;-76
2021/12/01 10:34:30;;;;;;;27.40;12.20;;;;;;;3.61;77.53;97216.43;105143;1325;25384;-76
2021/12/01 10:37:26;;;;;;;23.20;10.80;;;;;;;3.60;77.96;97217.17;105123;1325;22609;-75
2021/12/01 10:40:24;;;;;;;21.20;10.60;;;;;;;3.57;77.69;97214.24;105080;1326;22696;-76
2021/12/01 10:43:00;;;;;;;14.70;6.80;;;;;;;3.53;77.37;97205.21;105147;1325;22615;-77
2021/12/01 10:45:35;;;;;;;16.40;9.20;;;;;;;3.48;77.43;97195.73;105148;1325;22676;-76
2021/12/01 10:48:05;;;;;;;19.60;10.10;;;;;;;3.48;77.89;97186.27;105127;1325;25546;-76
2021/12/01 10:50:37;;;;;;;17.30;8.30;;;;;;;3.55;77.97;97182.20;105146;1325;22607;-76
2021/12/01 10:53:18;;;;;;;17.60;7.00;;;;;;;3.63;78.05;97175.34;105108;1324;22879;-76
2021/12/01 10:55:48;;;;;;;14.70;6.30;;;;;;;3.61;77.90;97168.58;105156;1325;25393;-77
2021/12/01 10:58:16;;;;;;;22.30;10.90;;;;;;;3.57;77.77;97162.13;105094;1325;23116;-77
2021/12/01 11:00:45;;;;;;;26.40;11.90;;;;;;;3.57;77.86;97158.67;105108;1325;22591;-77
2021/12/01 11:03:14;;;;;;;14.80;6.80;;;;;;;3.67;77.61;97150.30;105088;1324;22652;-76
2021/12/01 11:05:50;;;;;;;16.50;7.90;;;;;;;3.72;77.64;97143.95;105107;1325;22587;-77
2021/12/01 11:08:21;;;;;;;17.40;10.10;;;;;;;3.71;78.00;97139.20;105174;1325;22672;-75
2021/12/01 11:10:51;;;;;;;16.90;8.20;;;;;;;3.70;78.56;97142.16;105138;1324;22610;-77
2021/12/01 11:13:21;;;;;;;15.60;8.00;;;;;;;3.67;78.08;97132.03;105201;1325;25948;-77
2021/12/01 11:16:02;;;;;;;16.00;7.30;;;;;;;3.65;78.33;97127.89;105150;1325;22639;-77
2021/12/01 11:18:32;;;;;;;16.90;7.80;;;;;;;3.67;78.19;97123.80;105141;1325;23997;-76
2021/12/01 11:21:03;;;;;;;10.60;5.80;;;;;;;3.65;78.21;97126.33;105114;1325;25397;-76
2021/12/01 11:23:34;;;;;;;13.30;6.60;;;;;;;3.70;78.46;97121.90;105147;1325;22601;-76
2021/12/01 11:26:09;;;;;;;16.20;7.30;;;;;;;3.76;78.85;97117.36;105005;1325;22626;-77
2021/12/01 11:28:42;;;;;;;20.00;9.00;;;;;;;3.73;79.00;97112.20;105153;1325;22618;-77
2021/12/01 11:31:17;;;;;;;15.70;6.20;;;;;;;3.69;78.97;97111.77;105166;1325;22729;-77
2021/12/01 11:33:45;;;;;;;15.10;7.00;;;;;;;3.70;79.09;97109.82;105168;1325;22742;-77
2021/12/01 11:36:20;;;;;;;11.80;5.40;;;;;;;3.66;79.24;97103.23;105101;1324;22686;-77
2021/12/01 11:38:53;;;;;;;14.20;6.70;;;;;;;3.74;79.15;97093.21;105094;1325;23647;-79
2021/12/01 11:41:21;;;;;;;16.10;8.00;;;;;;;3.69;79.74;97093.51;105151;1324;22633;-77
2021/12/01 11:43:50;;;;;;;21.10;8.10;;;;;;;3.66;79.95;97093.04;105124;1325;22583;-77